createdAt,value
2019-05-18T00:01:18.500Z,10.60
2019-05-18T00:03:49.547Z,10.40
2019-05-18T00:06:26.579Z,10.40
2019-05-18T00:08:57.636Z,10.50
2019-05-18T00:11:30.337Z,10.60
2019-05-18T00:17:50.571Z,10.60
2019-05-18T00:20:22.086Z,10.60
2019-05-18T00:22:53.365Z,10.40
2019-05-18T00:25:24.485Z,10.50
2019-05-18T00:28:19.113Z,10.50
2019-05-18T00:30:50.352Z,10.70
2019-05-18T00:33:21.557Z,10.70
2019-05-18T00:35:52.721Z,10.90
2019-05-18T00:38:24.085Z,11.00
2019-05-18T00:40:55.210Z,11.10
2019-05-18T00:43:27.409Z,10.90
2019-05-18T00:45:58.480Z,10.80
2019-05-18T00:48:29.699Z,10.70
2019-05-18T00:51:00.763Z,10.70
2019-05-18T00:53:32.075Z,10.80
2019-05-18T00:56:26.551Z,10.60
2019-05-18T00:58:58.519Z,10.70
2019-05-18T01:01:35.647Z,10.70
2019-05-18T01:04:07.392Z,10.60
2019-05-18T01:06:38.805Z,10.70
2019-05-18T01:09:10.094Z,10.70
2019-05-18T01:11:41.111Z,10.80
2019-05-18T01:14:44.547Z,10.70
2019-05-18T01:17:15.594Z,10.80
2019-05-18T01:19:47.443Z,10.80
2019-05-18T01:22:18.637Z,10.80
2019-05-18T01:24:50.079Z,10.70
2019-05-18T01:27:21.219Z,10.80
2019-05-18T01:29:53.637Z,10.80
2019-05-18T01:32:25.361Z,10.80
2019-05-18T01:34:56.876Z,10.80
2019-05-18T01:37:28.197Z,10.70
2019-05-18T01:39:59.366Z,10.70
2019-05-18T01:42:30.467Z,10.60
2019-05-18T01:48:26.315Z,10.60
2019-05-18T01:50:57.463Z,10.60
2019-05-18T01:53:28.959Z,10.60
2019-05-18T01:56:18.747Z,10.60
2019-05-18T01:58:50.266Z,10.70
2019-05-18T02:01:32.665Z,10.70
2019-05-18T02:04:03.969Z,10.70
2019-05-18T02:06:35.553Z,10.70
2019-05-18T02:12:32.988Z,10.60
2019-05-18T02:15:04.499Z,10.60
2019-05-18T02:17:36.096Z,10.60
2019-05-18T02:23:27.940Z,10.50
2019-05-18T02:26:11.798Z,10.50
2019-05-18T02:28:44.056Z,10.40
2019-05-18T02:31:15.359Z,10.40
2019-05-18T02:33:47.563Z,10.40
2019-05-18T02:36:18.620Z,10.40
2019-05-18T02:38:50.996Z,10.30
2019-05-18T02:41:22.029Z,10.40
2019-05-18T02:43:53.793Z,10.40
2019-05-18T02:46:31.082Z,10.30
2019-05-18T02:52:31.531Z,10.40
2019-05-18T02:55:02.964Z,10.30
2019-05-18T02:58:05.216Z,10.30
2019-05-18T03:00:36.427Z,10.20
2019-05-18T03:03:07.963Z,10.20
2019-05-18T03:05:39.222Z,10.20
2019-05-18T03:08:11.185Z,10.10
2019-05-18T03:11:03.398Z,10.20
2019-05-18T03:13:34.784Z,10.20
2019-05-18T03:16:05.960Z,10.20
2019-05-18T03:18:37.300Z,10.30
2019-05-18T03:21:08.388Z,10.30
2019-05-18T03:23:58.796Z,10.20
2019-05-18T03:26:30.072Z,10.20
2019-05-18T03:32:54.698Z,10.20
2019-05-18T03:45:16.152Z,10.30
2019-05-18T03:47:47.189Z,10.30
2019-05-18T03:50:19.020Z,10.40
2019-05-18T03:52:50.071Z,10.40
2019-05-18T03:55:21.267Z,10.40
2019-05-18T03:57:52.319Z,10.50
2019-05-18T04:00:24.768Z,10.50
2019-05-18T04:02:56.147Z,10.50
2019-05-18T04:05:27.378Z,10.50
2019-05-18T04:07:58.412Z,10.50
2019-05-18T04:10:32.725Z,10.50
2019-05-18T04:13:03.751Z,10.50
2019-05-18T04:15:35.024Z,10.50
2019-05-18T04:18:06.651Z,10.50
2019-05-18T04:20:38.029Z,10.50
2019-05-18T04:23:09.169Z,10.40
2019-05-18T04:25:43.696Z,10.40
2019-05-18T04:28:13.427Z,10.40
2019-05-18T04:30:44.752Z,10.50
2019-05-18T04:33:16.136Z,10.50
2019-05-18T04:35:47.894Z,10.50
2019-05-18T04:38:18.987Z,10.50
2019-05-18T04:40:51.377Z,10.60
2019-05-18T04:43:27.426Z,10.50
2019-05-18T04:45:58.702Z,10.50
2019-05-18T04:51:49.505Z,10.60
2019-05-18T04:54:20.877Z,10.60
2019-05-18T04:56:58.010Z,10.60
2019-05-18T04:59:29.305Z,10.60
2019-05-18T05:02:11.899Z,10.60
2019-05-18T05:04:43.248Z,10.60
2019-05-18T05:07:14.431Z,10.60
2019-05-18T05:09:47.589Z,10.80
2019-05-18T05:12:19.445Z,10.90
2019-05-18T05:14:50.950Z,11.00
2019-05-18T05:17:22.667Z,11.00
2019-05-18T05:19:53.716Z,10.80
2019-05-18T05:22:25.264Z,10.80
2019-05-18T05:24:56.426Z,10.80
2019-05-18T05:27:27.665Z,10.90
2019-05-18T05:29:58.784Z,11.00
2019-05-18T05:32:31.191Z,11.20
2019-05-18T05:35:02.583Z,11.30
2019-05-18T05:37:34.295Z,11.50
2019-05-18T05:40:06.876Z,11.60
2019-05-18T05:42:38.328Z,11.60
2019-05-18T05:45:09.791Z,11.50
2019-05-18T05:47:40.982Z,11.60
2019-05-18T05:50:12.635Z,11.70
2019-05-18T05:52:43.995Z,11.70
2019-05-18T05:55:15.881Z,11.80
2019-05-18T05:57:47.177Z,11.80
2019-05-18T06:00:18.435Z,11.70
2019-05-18T06:02:49.730Z,11.90
2019-05-18T06:05:20.858Z,11.80
2019-05-18T06:07:53.086Z,11.90
2019-05-18T06:10:26.634Z,12.00
2019-05-18T06:13:03.234Z,12.00
2019-05-18T06:15:35.593Z,12.10
2019-05-18T06:18:06.942Z,12.40
2019-05-18T06:20:50.375Z,12.60
2019-05-18T06:23:24.722Z,12.80
2019-05-18T06:25:55.808Z,12.70
2019-05-18T06:28:27.039Z,12.80
2019-05-18T06:30:58.086Z,12.60
2019-05-18T06:33:29.296Z,12.70
2019-05-18T06:36:00.358Z,13.00
2019-05-18T06:38:31.680Z,13.10
2019-05-18T06:41:02.733Z,13.30
2019-05-18T06:43:35.695Z,13.30
2019-05-18T06:46:07.796Z,13.50
2019-05-18T06:48:39.955Z,13.50
2019-05-18T06:51:11.585Z,13.60
2019-05-18T06:53:43.189Z,13.70
2019-05-18T06:56:16.172Z,13.50
2019-05-18T06:58:48.701Z,13.70
2019-05-18T07:01:21.268Z,13.90
2019-05-18T07:03:53.238Z,13.90
2019-05-18T07:06:25.260Z,13.70
2019-05-18T07:08:56.593Z,13.70
2019-05-18T07:11:27.976Z,13.90
2019-05-18T07:13:59.576Z,13.50
2019-05-18T07:16:30.631Z,13.90
2019-05-18T07:19:01.894Z,13.70
2019-05-18T07:21:33.130Z,14.00
2019-05-18T07:24:04.552Z,14.30
2019-05-18T07:26:46.872Z,14.10
2019-05-18T07:29:18.212Z,14.40
2019-05-18T07:31:49.339Z,14.30
2019-05-18T07:34:21.982Z,14.60
2019-05-18T07:36:53.536Z,14.70
2019-05-18T07:39:24.834Z,14.70
2019-05-18T07:41:56.100Z,14.50
2019-05-18T07:44:28.682Z,14.70
2019-05-18T07:47:00.221Z,14.80
2019-05-18T07:49:37.420Z,14.70
2019-05-18T07:52:08.541Z,14.80
2019-05-18T07:54:39.907Z,15.00
2019-05-18T07:57:11.164Z,14.90
2019-05-18T07:59:42.895Z,14.90
2019-05-18T08:02:14.106Z,15.10
2019-05-18T08:05:04.760Z,15.20
2019-05-18T08:07:35.925Z,15.30
2019-05-18T08:10:08.681Z,15.40
2019-05-18T08:12:39.972Z,15.50
2019-05-18T08:15:12.326Z,15.80
2019-05-18T08:17:44.056Z,15.70
2019-05-18T08:20:15.920Z,15.50
2019-05-18T08:22:47.224Z,15.50
2019-05-18T08:25:18.848Z,15.50
2019-05-18T08:27:49.983Z,15.60
2019-05-18T08:30:21.434Z,15.80
2019-05-18T08:32:53.325Z,16.00
2019-05-18T08:35:43.554Z,15.90
2019-05-18T08:38:14.597Z,16.00
2019-05-18T08:40:45.971Z,16.20
2019-05-18T08:43:17.044Z,16.30
2019-05-18T08:45:48.384Z,16.10
2019-05-18T08:48:19.422Z,16.00
2019-05-18T08:50:50.682Z,16.00
2019-05-18T08:53:21.769Z,16.10
2019-05-18T08:55:52.968Z,16.30
2019-05-18T08:58:24.060Z,16.50
2019-05-18T09:00:55.328Z,16.30
2019-05-18T09:03:26.404Z,16.60
2019-05-18T09:05:57.544Z,16.70
2019-05-18T09:08:28.598Z,16.60
2019-05-18T09:11:01.360Z,16.60
2019-05-18T09:13:32.612Z,16.70
2019-05-18T09:16:04.982Z,16.60
2019-05-18T09:18:36.047Z,16.60
2019-05-18T09:21:07.480Z,16.40
2019-05-18T09:23:38.604Z,15.80
2019-05-18T09:26:09.759Z,16.10
2019-05-18T09:28:40.859Z,16.50
2019-05-18T09:31:12.261Z,16.20
2019-05-18T09:33:43.345Z,16.70
2019-05-18T09:36:14.679Z,16.80
2019-05-18T09:38:46.050Z,17.20
2019-05-18T09:41:17.650Z,17.10
2019-05-18T09:43:48.732Z,16.50
2019-05-18T09:46:20.045Z,16.70
2019-05-18T09:48:51.243Z,16.60
2019-05-18T09:51:22.650Z,16.90
2019-05-18T09:53:53.702Z,17.30
2019-05-18T09:56:25.830Z,16.80
2019-05-18T09:58:56.920Z,17.00
2019-05-18T10:01:28.340Z,17.20
2019-05-18T10:03:59.388Z,17.30
2019-05-18T10:06:31.524Z,17.60
2019-05-18T10:09:03.384Z,17.80
2019-05-18T10:11:38.450Z,17.80
2019-05-18T10:14:08.478Z,18.00
2019-05-18T10:16:39.845Z,18.00
2019-05-18T10:19:11.178Z,18.10
2019-05-18T10:21:43.446Z,17.70
2019-05-18T10:24:15.016Z,17.50
2019-05-18T10:26:46.860Z,17.70
2019-05-18T10:29:17.928Z,17.90
2019-05-18T10:31:49.343Z,18.00
2019-05-18T10:34:20.937Z,18.20
2019-05-18T10:36:52.743Z,18.30
2019-05-18T10:39:24.208Z,18.30
2019-05-18T10:41:55.467Z,18.20
2019-05-18T10:44:26.607Z,18.40
2019-05-18T10:46:58.062Z,18.40
2019-05-18T10:49:29.262Z,18.60
2019-05-18T10:52:01.452Z,18.60
2019-05-18T10:54:32.630Z,18.70
2019-05-18T10:57:04.003Z,18.80
2019-05-18T10:59:35.472Z,18.90
2019-05-18T11:02:06.688Z,18.90
2019-05-18T11:04:38.092Z,18.90
2019-05-18T11:07:09.417Z,19.10
2019-05-18T11:09:40.569Z,19.20
2019-05-18T11:12:12.177Z,19.10
2019-05-18T11:14:43.368Z,18.90
2019-05-18T11:17:14.870Z,19.00
2019-05-18T11:19:46.041Z,19.00
2019-05-18T11:22:17.380Z,19.10
2019-05-18T11:24:48.453Z,18.90
2019-05-18T11:27:19.760Z,19.20
2019-05-18T11:29:51.056Z,19.20
2019-05-18T11:32:22.333Z,19.10
2019-05-18T11:34:53.469Z,18.90
2019-05-18T11:37:24.750Z,19.00
2019-05-18T11:40:01.472Z,19.20
2019-05-18T11:42:32.779Z,19.20
2019-05-18T11:45:04.083Z,18.90
2019-05-18T11:47:35.578Z,18.30
2019-05-18T11:50:07.586Z,18.20
2019-05-18T11:52:38.900Z,17.90
2019-05-18T11:55:10.956Z,18.10
2019-05-18T11:57:42.301Z,18.50
2019-05-18T12:00:15.929Z,18.80
2019-05-18T12:02:47.782Z,18.80
2019-05-18T12:05:19.993Z,19.00
2019-05-18T12:07:51.334Z,19.20
2019-05-18T12:10:23.104Z,19.30
2019-05-18T12:12:55.114Z,18.70
2019-05-18T12:15:26.619Z,18.70
2019-05-18T12:17:58.118Z,18.80
2019-05-18T12:20:29.409Z,18.80
2019-05-18T12:23:01.408Z,18.90
2019-05-18T12:25:33.036Z,19.10
2019-05-18T12:28:04.381Z,19.20
2019-05-18T12:30:35.534Z,18.60
2019-05-18T12:33:06.784Z,18.90
2019-05-18T12:35:37.864Z,18.60
2019-05-18T12:38:10.759Z,18.30
2019-05-18T12:40:41.946Z,18.20
2019-05-18T12:43:13.287Z,18.70
2019-05-18T12:45:44.430Z,19.10
2019-05-18T12:48:16.056Z,19.20
2019-05-18T12:50:48.636Z,19.00
2019-05-18T12:53:19.868Z,19.00
2019-05-18T12:55:50.994Z,19.10
2019-05-18T12:58:22.700Z,19.10
2019-05-18T13:00:53.965Z,19.30
2019-05-18T13:03:25.698Z,19.30
2019-05-18T13:05:56.745Z,19.40
2019-05-18T13:08:28.080Z,19.30
2019-05-18T13:10:59.138Z,18.90
2019-05-18T13:13:30.690Z,19.00
2019-05-18T13:16:01.916Z,19.10
2019-05-18T13:18:33.326Z,19.00
2019-05-18T13:21:04.794Z,19.10
2019-05-18T13:23:36.388Z,19.20
2019-05-18T13:26:07.619Z,19.10
2019-05-18T13:28:39.132Z,19.20
2019-05-18T13:31:10.240Z,19.30
2019-05-18T13:33:41.532Z,18.80
2019-05-18T13:36:12.702Z,19.00
2019-05-18T13:38:44.069Z,19.00
2019-05-18T13:41:15.126Z,19.10
2019-05-18T13:43:46.469Z,19.70
2019-05-18T13:46:17.513Z,19.90
2019-05-18T13:48:49.096Z,20.20
2019-05-18T13:51:20.294Z,20.40
2019-05-18T13:53:51.576Z,20.40
2019-05-18T13:56:22.716Z,20.10
2019-05-18T13:58:54.078Z,20.50
2019-05-18T14:01:25.199Z,20.20
2019-05-18T14:03:56.579Z,19.80
2019-05-18T14:06:27.768Z,19.60
2019-05-18T14:08:59.186Z,19.90
2019-05-18T14:11:30.438Z,20.00
2019-05-18T14:14:02.045Z,20.20
2019-05-18T14:16:33.229Z,19.80
2019-05-18T14:19:04.660Z,19.90
2019-05-18T14:21:35.803Z,19.80
2019-05-18T14:24:07.474Z,20.10
2019-05-18T14:26:38.698Z,20.40
2019-05-18T14:29:10.081Z,20.20
2019-05-18T14:31:41.201Z,20.70
2019-05-18T14:34:12.708Z,20.80
2019-05-18T14:36:44.279Z,20.90
2019-05-18T14:39:27.359Z,21.60
2019-05-18T14:41:59.178Z,21.80
2019-05-18T14:44:30.534Z,22.30
2019-05-18T14:47:01.615Z,22.50
2019-05-18T14:49:32.897Z,22.50
2019-05-18T14:52:15.272Z,22.40
2019-05-18T14:54:46.804Z,22.20
2019-05-18T14:57:17.988Z,22.20
2019-05-18T14:59:49.436Z,22.20
2019-05-18T15:02:20.586Z,21.70
2019-05-18T15:04:55.092Z,20.80
2019-05-18T15:07:24.673Z,20.80
2019-05-18T15:09:56.115Z,20.30
2019-05-18T15:12:39.056Z,20.40
2019-05-18T15:15:11.976Z,20.50
2019-05-18T15:17:43.072Z,20.00
2019-05-18T15:20:14.732Z,20.20
2019-05-18T15:22:46.069Z,20.10
2019-05-18T15:25:17.682Z,20.20
2019-05-18T15:27:48.922Z,19.90
2019-05-18T15:30:20.330Z,19.70
2019-05-18T15:32:51.485Z,20.20
2019-05-18T15:35:22.832Z,20.00
2019-05-18T15:37:53.948Z,19.80
2019-05-18T15:40:25.212Z,19.50
2019-05-18T15:42:56.326Z,19.70
2019-05-18T15:45:27.906Z,19.60
2019-05-18T15:47:58.936Z,19.60
2019-05-18T15:50:30.207Z,19.40
2019-05-18T15:53:01.442Z,19.70
2019-05-18T15:55:32.806Z,19.80
2019-05-18T15:58:03.832Z,19.80
2019-05-18T16:00:35.235Z,20.00
2019-05-18T16:03:06.350Z,19.90
2019-05-18T16:05:37.679Z,19.40
2019-05-18T16:08:08.879Z,19.30
2019-05-18T16:10:40.172Z,19.10
2019-05-18T16:13:11.260Z,19.00
2019-05-18T16:15:42.802Z,19.00
2019-05-18T16:18:13.839Z,18.90
2019-05-18T16:20:45.028Z,18.80
2019-05-18T16:23:16.372Z,19.10
2019-05-18T16:25:47.665Z,19.20
2019-05-18T16:28:30.551Z,19.00
2019-05-18T16:31:13.695Z,18.70
2019-05-18T16:33:44.883Z,18.60
2019-05-18T16:36:16.195Z,18.50
2019-05-18T16:38:47.266Z,18.50
2019-05-18T16:41:18.606Z,18.60
2019-05-18T16:43:49.622Z,18.40
2019-05-18T16:46:20.882Z,18.30
2019-05-18T16:48:52.009Z,18.30
2019-05-18T16:51:23.478Z,18.30
2019-05-18T16:53:54.620Z,18.30
2019-05-18T16:56:35.168Z,18.40
2019-05-18T16:59:02.942Z,18.40
2019-05-18T17:01:35.371Z,18.40
2019-05-18T17:04:06.430Z,18.30
2019-05-18T17:06:37.974Z,18.10
2019-05-18T17:09:09.035Z,18.20
2019-05-18T17:11:40.243Z,18.10
2019-05-18T17:14:11.302Z,18.10
2019-05-18T17:16:42.707Z,18.20
2019-05-18T17:19:13.758Z,18.10
2019-05-18T17:21:45.140Z,18.10
2019-05-18T17:24:16.266Z,18.10
2019-05-18T17:26:52.705Z,18.00
2019-05-18T17:29:20.276Z,17.80
2019-05-18T17:31:51.625Z,17.80
2019-05-18T17:34:34.110Z,17.70
2019-05-18T17:37:05.595Z,17.80
2019-05-18T17:39:36.705Z,17.70
2019-05-18T17:42:08.081Z,17.60
2019-05-18T17:44:39.238Z,17.60
2019-05-18T17:47:10.535Z,17.60
2019-05-18T17:49:41.748Z,17.60
2019-05-18T17:52:12.995Z,17.60
2019-05-18T17:54:44.087Z,17.60
2019-05-18T17:57:15.437Z,17.40
2019-05-18T17:59:49.417Z,17.40
2019-05-18T18:02:19.444Z,17.40
2019-05-18T18:04:53.999Z,17.30
2019-05-18T18:07:23.503Z,17.30
2019-05-18T18:09:54.600Z,17.20
2019-05-18T18:12:25.917Z,17.10
2019-05-18T18:14:57.155Z,17.00
2019-05-18T18:17:28.509Z,17.00
2019-05-18T18:19:59.963Z,16.90
2019-05-18T18:22:31.174Z,16.80
2019-05-18T18:25:02.276Z,17.00
2019-05-18T18:27:33.817Z,16.90
2019-05-18T18:30:05.738Z,16.90
2019-05-18T18:32:36.965Z,16.90
2019-05-18T18:35:08.227Z,16.70
2019-05-18T18:37:39.643Z,16.70
2019-05-18T18:40:11.047Z,16.70
2019-05-18T18:42:42.240Z,16.70
2019-05-18T18:45:13.928Z,16.50
2019-05-18T18:47:45.147Z,16.50
2019-05-18T18:50:17.139Z,16.50
2019-05-18T18:52:48.447Z,16.40
2019-05-18T18:55:19.643Z,16.40
2019-05-18T18:57:50.929Z,16.40
2019-05-18T19:00:22.003Z,16.30
2019-05-18T19:02:53.122Z,16.30
2019-05-18T19:05:24.283Z,16.30
2019-05-18T19:07:55.621Z,16.30
2019-05-18T19:10:26.693Z,16.40
2019-05-18T19:12:58.006Z,16.40
2019-05-18T19:15:40.921Z,16.30
2019-05-18T19:18:12.169Z,16.30
2019-05-18T19:20:43.407Z,16.40
2019-05-18T19:23:14.816Z,16.40
2019-05-18T19:25:57.615Z,16.40
2019-05-18T19:28:28.949Z,16.50
2019-05-18T19:30:59.997Z,16.40
2019-05-18T19:33:43.284Z,16.40
2019-05-18T19:36:14.386Z,16.30
2019-05-18T19:38:45.791Z,16.30
2019-05-18T19:41:16.999Z,16.20
2019-05-18T19:43:48.251Z,16.10
2019-05-18T19:46:19.368Z,16.10
2019-05-18T19:48:50.904Z,16.10
2019-05-18T19:51:21.937Z,16.10
2019-05-18T19:54:05.472Z,16.00
2019-05-18T19:56:40.449Z,15.90
2019-05-18T19:59:09.704Z,15.70
2019-05-18T20:01:40.724Z,15.70
2019-05-18T20:04:11.990Z,15.60
2019-05-18T20:06:43.143Z,15.50
2019-05-18T20:09:15.203Z,15.60
2019-05-18T20:11:46.276Z,15.50
2019-05-18T20:14:18.796Z,15.40
2019-05-18T20:16:49.866Z,15.40
2019-05-18T20:19:21.101Z,15.30
2019-05-18T20:21:52.145Z,15.30
2019-05-18T20:24:27.811Z,15.20
2019-05-18T20:26:59.063Z,15.20
2019-05-18T20:29:30.780Z,15.20
2019-05-18T20:32:01.956Z,15.10
2019-05-18T20:34:33.287Z,15.00
2019-05-18T20:37:04.424Z,15.00
2019-05-18T20:39:35.681Z,15.00
2019-05-18T20:42:06.721Z,15.00
2019-05-18T20:44:37.994Z,15.00
2019-05-18T20:47:09.031Z,15.00
2019-05-18T20:49:40.383Z,14.90
2019-05-18T20:52:11.484Z,14.90
2019-05-18T20:54:42.876Z,14.90
2019-05-18T20:57:13.967Z,14.90
2019-05-18T20:59:45.171Z,14.90
2019-05-18T21:02:16.308Z,14.90
2019-05-18T21:04:47.667Z,14.90
2019-05-18T21:07:18.727Z,14.90
2019-05-18T21:09:50.058Z,14.80
2019-05-18T21:12:21.129Z,14.90
2019-05-18T21:14:52.451Z,14.90
2019-05-18T21:17:23.597Z,14.90
2019-05-18T21:19:54.811Z,15.00
2019-05-18T21:22:25.915Z,15.00
2019-05-18T21:24:57.339Z,15.00
2019-05-18T21:27:28.411Z,14.90
2019-05-18T21:29:59.653Z,14.90
2019-05-18T21:32:30.743Z,14.80
2019-05-18T21:35:03.136Z,14.80
2019-05-18T21:37:34.300Z,14.80
2019-05-18T21:40:07.073Z,14.80
2019-05-18T21:42:38.111Z,14.80
2019-05-18T21:45:09.983Z,14.90
2019-05-18T21:47:41.041Z,14.80
2019-05-18T21:50:13.093Z,14.80
2019-05-18T21:52:44.203Z,14.90
2019-05-18T21:55:15.633Z,14.80
2019-05-18T21:57:46.733Z,14.80
2019-05-18T22:00:19.216Z,14.80
2019-05-18T22:02:52.017Z,14.60
2019-05-18T22:05:23.331Z,14.70
2019-05-18T22:07:54.437Z,14.70
2019-05-18T22:10:26.303Z,14.60
2019-05-18T22:12:57.734Z,14.50
2019-05-18T22:15:29.000Z,14.40
2019-05-18T22:18:03.367Z,14.40
2019-05-18T22:20:36.389Z,14.40
2019-05-18T22:23:09.372Z,14.40
2019-05-18T22:25:51.969Z,14.40
2019-05-18T22:28:22.990Z,14.50
2019-05-18T22:30:54.742Z,14.70
2019-05-18T22:33:25.799Z,14.70
2019-05-18T22:35:57.540Z,14.70
2019-05-18T22:38:28.590Z,14.70
2019-05-18T22:40:59.943Z,14.80
2019-05-18T22:43:30.967Z,14.70
2019-05-18T22:46:14.003Z,14.70
2019-05-18T22:48:45.077Z,14.60
2019-05-18T22:51:16.399Z,14.60
2019-05-18T22:53:47.742Z,14.30
2019-05-18T22:56:18.989Z,14.20
2019-05-18T22:58:50.002Z,13.90
2019-05-18T23:01:21.387Z,13.70
2019-05-18T23:03:53.609Z,13.50
2019-05-18T23:06:25.120Z,13.50
2019-05-18T23:08:56.218Z,13.40
2019-05-18T23:11:27.530Z,13.40
2019-05-18T23:13:58.606Z,13.20
2019-05-18T23:16:29.897Z,13.10
2019-05-18T23:19:00.929Z,13.00
2019-05-18T23:21:32.179Z,13.00
2019-05-18T23:24:03.445Z,13.00
2019-05-18T23:26:35.045Z,12.90
2019-05-18T23:29:06.143Z,12.80
2019-05-18T23:31:37.512Z,12.70
2019-05-18T23:34:08.585Z,12.60
2019-05-18T23:36:40.077Z,12.50
2019-05-18T23:39:11.219Z,12.50
2019-05-18T23:41:42.589Z,12.60
2019-05-18T23:44:13.669Z,12.70
2019-05-18T23:46:44.892Z,12.60
2019-05-18T23:49:15.941Z,12.20
2019-05-18T23:51:47.259Z,11.90
2019-05-18T23:54:18.293Z,12.10
2019-05-18T23:56:49.751Z,12.30
2019-05-18T23:59:38.027Z,12.30
